Time;durP1;ratioP1;P1;durP2;ratioP2;P2;SDS_P1;SDS_P2;PMS_P1;PMS_P2;Temp;Humidity;BMP_temperature;BMP_pressure;BME280_temperature;BME280_humidity;BME280_pressure;Samples;Min_cycle;Max_cycle;Signal;HPM_P1;HPM_P2
2021/12/26 00:01:20;;;;;;;40.00;23.20;;;6.00;99.90;;;;;;5036450;28;20173;-78
2021/12/26 00:03:46;;;;;;;41.97;23.50;;;6.00;99.90;;;;;;5035024;28;20178;-78
2021/12/26 00:06:19;;;;;;;39.57;23.63;;;6.00;99.90;;;;;;5034649;28;20206;-77
2021/12/26 00:08:46;;;;;;;36.93;22.00;;;6.00;99.90;;;;;;5033433;28;20174;-77
2021/12/26 00:11:12;;;;;;;40.07;21.50;;;6.00;99.90;;;;;;5033103;28;20181;-78
2021/12/26 00:13:39;;;;;;;35.50;21.37;;;6.00;99.90;;;;;;5041744;28;20209;-78
2021/12/26 00:16:06;;;;;;;33.77;21.10;;;6.00;99.90;;;;;;5034436;28;20570;-77
2021/12/26 00:18:32;;;;;;;34.40;20.83;;;6.00;99.90;;;;;;5034158;28;20246;-77
2021/12/26 00:20:58;;;;;;;32.20;20.40;;;6.10;99.90;;;;;;5034538;28;20185;-78
2021/12/26 00:23:23;;;;;;;32.83;21.63;;;6.00;99.90;;;;;;5037515;28;20182;-77
2021/12/26 00:25:49;;;;;;;38.40;22.20;;;6.10;99.90;;;;;;5019948;28;20201;-78
2021/12/26 00:28:16;;;;;;;33.97;21.43;;;6.10;99.90;;;;;;5024252;28;20669;-78
2021/12/26 00:30:44;;;;;;;32.10;20.53;;;6.10;99.90;;;;;;5042174;28;20202;-78
2021/12/26 00:33:09;;;;;;;29.37;19.73;;;6.10;99.90;;;;;;5041400;28;20190;-78
2021/12/26 00:35:35;;;;;;;29.03;19.37;;;6.10;99.90;;;;;;5038178;28;20194;-77
2021/12/26 00:38:02;;;;;;;30.70;20.30;;;6.10;99.90;;;;;;5037690;28;20265;-77
2021/12/26 00:40:28;;;;;;;33.87;22.47;;;6.10;99.90;;;;;;5037290;28;20250;-77
2021/12/26 00:42:55;;;;;;;35.67;22.33;;;6.00;99.90;;;;;;5037391;28;20181;-77
2021/12/26 00:45:21;;;;;;;32.77;20.90;;;6.00;99.90;;;;;;5021757;28;20208;-78
2021/12/26 00:47:47;;;;;;;34.00;21.73;;;6.00;99.90;;;;;;5041081;28;20639;-78
2021/12/26 00:50:16;;;;;;;34.67;21.80;;;6.00;99.90;;;;;;5042028;28;20207;-78
2021/12/26 00:52:41;;;;;;;36.37;23.30;;;5.90;99.90;;;;;;5024540;28;20194;-78
2021/12/26 00:55:10;;;;;;;36.77;23.47;;;5.80;99.90;;;;;;5041058;28;20228;-78
2021/12/26 00:57:35;;;;;;;37.63;24.13;;;5.80;99.90;;;;;;5023231;28;20173;-78
2021/12/26 01:00:03;;;;;;;36.17;22.90;;;5.80;99.90;;;;;;5041089;28;20183;-78
2021/12/26 01:02:29;;;;;;;40.37;25.23;;;5.90;99.90;;;;;;5040663;28;20177;-78
2021/12/26 01:04:55;;;;;;;35.53;22.60;;;5.90;99.90;;;;;;5022964;28;20535;-78
2021/12/26 01:07:35;;;;;;;37.80;23.60;;;5.80;99.90;;;;;;5041136;28;20583;-78
2021/12/26 01:10:04;;;;;;;42.53;25.23;;;5.90;99.90;;;;;;5024549;28;20184;-78
2021/12/26 01:12:30;;;;;;;40.90;25.10;;;5.80;99.90;;;;;;5028665;28;20573;-78
2021/12/26 01:15:03;;;;;;;44.43;25.17;;;5.70;99.90;;;;;;5040190;28;20173;-78
2021/12/26 01:17:29;;;;;;;41.40;24.23;;;5.80;99.90;;;;;;5040577;28;20172;-78
2021/12/26 01:19:55;;;;;;;37.67;23.93;;;5.80;99.90;;;;;;5023693;28;20171;-78
2021/12/26 01:22:23;;;;;;;44.03;25.37;;;5.70;99.90;;;;;;5023076;28;20557;-78
2021/12/26 01:24:55;;;;;;;41.80;24.60;;;5.70;99.90;;;;;;5040588;28;20168;-78
2021/12/26 01:27:25;;;;;;;44.43;24.90;;;5.70;99.90;;;;;;5040893;28;20172;-78
2021/12/26 01:29:52;;;;;;;40.27;25.37;;;5.70;99.90;;;;;;5022837;28;20185;-78
2021/12/26 01:32:19;;;;;;;42.07;24.87;;;5.70;99.90;;;;;;5036908;28;20182;-78
2021/12/26 01:34:46;;;;;;;41.03;24.97;;;5.60;99.90;;;;;;5021337;28;20241;-77
2021/12/26 01:37:12;;;;;;;43.53;25.57;;;5.70;99.90;;;;;;5037609;28;20182;-79
2021/12/26 01:39:38;;;;;;;37.73;24.03;;;5.70;99.90;;;;;;5038884;28;20177;-78
2021/12/26 01:42:04;;;;;;;40.53;24.60;;;5.90;99.90;;;;;;5039086;28;20520;-78
2021/12/26 01:44:31;;;;;;;37.23;24.20;;;5.70;99.90;;;;;;5020022;28;20189;-78
2021/12/26 01:46:57;;;;;;;34.50;23.20;;;5.70;99.90;;;;;;5038555;28;20209;-78
2021/12/26 01:49:28;;;;;;;35.73;22.57;;;5.70;99.90;;;;;;5037890;28;20175;-79
2021/12/26 01:51:57;;;;;;;38.47;23.67;;;5.70;99.90;;;;;;5021700;28;20194;-80
2021/12/26 01:54:33;;;;;;;33.87;22.27;;;5.70;99.90;;;;;;5018139;28;20174;-79
2021/12/26 01:57:00;;;;;;;32.23;22.80;;;5.70;99.90;;;;;;5002047;28;20201;-77
2021/12/26 01:59:27;;;;;;;34.13;22.60;;;5.70;99.90;;;;;;5036964;28;20169;-78
2021/12/26 02:01:57;;;;;;;28.93;20.53;;;5.80;99.90;;;;;;5038154;28;20173;-78
2021/12/26 02:04:28;;;;;;;28.93;20.17;;;5.80;99.90;;;;;;5039444;28;20217;-78
2021/12/26 02:06:57;;;;;;;29.03;20.43;;;5.70;99.90;;;;;;5037944;28;20201;-77
2021/12/26 02:09:23;;;;;;;25.67;19.80;;;5.70;99.90;;;;;;5042524;28;20541;-78
2021/12/26 02:11:49;;;;;;;28.30;20.37;;;5.70;99.90;;;;;;5039271;28;20198;-78
2021/12/26 02:14:15;;;;;;;32.60;21.77;;;5.60;99.90;;;;;;5037387;28;20568;-79
2021/12/26 02:16:40;;;;;;;25.83;20.10;;;5.60;99.90;;;;;;5019063;28;20188;-78
2021/12/26 02:19:06;;;;;;;29.60;20.60;;;5.60;99.90;;;;;;5036420;28;20241;-78
2021/12/26 02:21:59;;;;;;;28.37;20.20;;;5.70;99.90;;;;;;5037051;28;20179;-80
2021/12/26 02:29:53;;;;;;;24.67;19.30;;;5.80;99.90;;;;;;5037102;28;20731;-78
2021/12/26 02:32:19;;;;;;;23.33;18.23;;;5.70;99.90;;;;;;5036761;28;20191;-78
2021/12/26 02:34:45;;;;;;;22.67;18.20;;;5.50;99.90;;;;;;5036126;28;20225;-77
2021/12/26 02:37:10;;;;;;;27.10;18.90;;;5.80;99.90;;;;;;5018896;28;20201;-78
2021/12/26 02:39:36;;;;;;;24.77;18.87;;;5.80;99.90;;;;;;5019114;28;20184;-79
2021/12/26 02:42:05;;;;;;;24.67;18.07;;;5.80;99.90;;;;;;5024514;28;20177;-79
2021/12/26 02:44:31;;;;;;;23.70;18.20;;;5.80;99.90;;;;;;5036761;28;20177;-77
2021/12/26 02:46:57;;;;;;;25.73;18.87;;;5.80;99.90;;;;;;5037332;28;20203;-78
2021/12/26 02:49:24;;;;;;;25.30;18.77;;;5.80;99.90;;;;;;5036623;28;20242;-78
2021/12/26 02:51:50;;;;;;;25.50;18.17;;;5.90;99.90;;;;;;5039765;28;20236;-77
2021/12/26 02:54:16;;;;;;;25.00;17.97;;;5.90;99.90;;;;;;5035047;28;20165;-77
2021/12/26 02:56:42;;;;;;;23.90;18.30;;;6.00;99.90;;;;;;5034579;28;20221;-80
2021/12/26 02:59:07;;;;;;;26.90;19.67;;;5.90;99.90;;;;;;5037012;28;20524;-77
2021/12/26 03:01:33;;;;;;;27.93;19.33;;;5.80;99.90;;;;;;5036647;28;20178;-77
2021/12/26 03:03:59;;;;;;;26.47;19.33;;;5.80;99.90;;;;;;5036114;28;20546;-78
2021/12/26 03:06:34;;;;;;;24.67;18.40;;;5.70;99.90;;;;;;5037516;28;20206;-78
2021/12/26 03:09:00;;;;;;;27.97;19.57;;;5.80;99.90;;;;;;5037250;28;20173;-77
2021/12/26 03:11:26;;;;;;;24.47;17.77;;;5.70;99.90;;;;;;5037405;28;20252;-78
2021/12/26 03:13:52;;;;;;;24.50;18.13;;;5.90;99.90;;;;;;5037436;28;20262;-78
2021/12/26 03:16:17;;;;;;;27.73;19.30;;;5.90;99.90;;;;;;5036781;28;20547;-78
2021/12/26 03:18:43;;;;;;;29.80;19.10;;;6.00;99.90;;;;;;5037267;28;20236;-78
2021/12/26 03:21:09;;;;;;;26.77;18.23;;;5.80;99.90;;;;;;5037184;28;20209;-78
2021/12/26 03:23:35;;;;;;;29.60;19.47;;;5.80;99.90;;;;;;5019208;28;20180;-78
2021/12/26 03:26:04;;;;;;;26.70;18.67;;;5.80;99.90;;;;;;5036414;28;20256;-78
2021/12/26 03:28:30;;;;;;;29.43;19.93;;;5.70;99.90;;;;;;5036819;28;20177;-78
2021/12/26 03:30:58;;;;;;;29.17;20.40;;;5.80;99.90;;;;;;5036776;28;20177;-78
2021/12/26 03:33:25;;;;;;;30.03;20.20;;;5.60;99.90;;;;;;5036545;28;20664;-78
2021/12/26 03:35:51;;;;;;;33.00;20.83;;;5.60;99.90;;;;;;5033374;28;20228;-78
2021/12/26 03:38:19;;;;;;;28.27;19.17;;;5.60;99.90;;;;;;5018788;28;20173;-78
2021/12/26 03:40:45;;;;;;;28.60;19.43;;;5.60;99.90;;;;;;5036444;28;20194;-78
2021/12/26 03:43:11;;;;;;;25.80;19.67;;;5.70;99.90;;;;;;5036758;28;20190;-78
2021/12/26 03:45:40;;;;;;;25.83;19.57;;;5.80;99.90;;;;;;5036042;28;20199;-78
2021/12/26 03:48:06;;;;;;;28.13;19.73;;;5.70;99.90;;;;;;5036292;28;20657;-78
2021/12/26 03:50:33;;;;;;;28.03;19.13;;;5.60;99.90;;;;;;5019162;28;20205;-78
2021/12/26 03:53:02;;;;;;;30.07;19.83;;;5.60;99.90;;;;;;5036353;28;20192;-78
2021/12/26 03:55:28;;;;;;;29.20;20.27;;;5.60;99.90;;;;;;5019287;28;20191;-77
2021/12/26 03:57:54;;;;;;;30.37;19.53;;;5.60;99.90;;;;;;5018880;28;20177;-78
2021/12/26 04:00:21;;;;;;;31.10;20.80;;;5.60;99.90;;;;;;5019315;28;20518;-78
2021/12/26 04:02:47;;;;;;;35.17;20.90;;;5.60;99.90;;;;;;5016307;28;20315;-79
2021/12/26 04:05:14;;;;;;;33.67;21.10;;;5.60;99.90;;;;;;5036130;28;20231;-78
2021/12/26 04:07:41;;;;;;;31.50;21.53;;;5.60;99.90;;;;;;5036463;28;20168;-78
2021/12/26 04:10:08;;;;;;;36.20;22.20;;;5.60;99.90;;;;;;5036560;28;20550;-78
2021/12/26 04:12:37;;;;;;;35.10;22.23;;;5.60;99.90;;;;;;5036585;28;20258;-78
2021/12/26 04:15:08;;;;;;;32.13;20.90;;;5.60;99.90;;;;;;5036709;28;20181;-78
2021/12/26 04:17:34;;;;;;;33.10;20.77;;;5.60;99.90;;;;;;5037157;28;20172;-78
2021/12/26 04:20:00;;;;;;;34.20;20.90;;;5.50;99.90;;;;;;5036564;28;20174;-79
2021/12/26 04:22:26;;;;;;;29.37;21.27;;;5.50;99.90;;;;;;5019036;28;20228;-78
2021/12/26 04:24:51;;;;;;;28.17;19.57;;;5.50;99.90;;;;;;5036691;28;20176;-78
2021/12/26 04:27:17;;;;;;;28.43;19.40;;;5.50;99.90;;;;;;5036170;28;20256;-78
2021/12/26 04:29:43;;;;;;;28.17;18.90;;;5.60;99.90;;;;;;5036413;28;20181;-78
2021/12/26 04:32:09;;;;;;;28.30;19.03;;;5.50;99.90;;;;;;5036088;28;20204;-78
2021/12/26 04:34:34;;;;;;;22.53;17.27;;;5.60;99.90;;;;;;5036427;28;20541;-78
2021/12/26 04:37:00;;;;;;;24.43;17.87;;;5.70;99.90;;;;;;5036467;28;20288;-78
2021/12/26 04:39:26;;;;;;;31.50;19.90;;;5.70;99.90;;;;;;5035789;28;20250;-79
2021/12/26 04:41:51;;;;;;;29.17;19.87;;;5.70;99.90;;;;;;5024875;28;20182;-78
2021/12/26 04:44:17;;;;;;;26.20;18.87;;;5.70;99.90;;;;;;5036292;28;20183;-77
2021/12/26 04:46:43;;;;;;;31.90;19.70;;;5.60;99.90;;;;;;5036121;28;20195;-78
2021/12/26 04:49:08;;;;;;;38.23;21.27;;;5.60;99.90;;;;;;5036718;28;20181;-78
2021/12/26 04:51:34;;;;;;;28.57;19.43;;;5.60;99.90;;;;;;5034360;28;20259;-77
2021/12/26 04:54:00;;;;;;;32.20;19.80;;;5.60;99.90;;;;;;5033729;28;20558;-77
2021/12/26 04:56:25;;;;;;;38.83;19.93;;;5.60;99.90;;;;;;5016563;28;20196;-78
2021/12/26 04:58:51;;;;;;;31.87;19.33;;;5.50;99.90;;;;;;5016675;28;20173;-78
2021/12/26 05:01:17;;;;;;;29.47;19.67;;;5.60;99.90;;;;;;5031120;28;20582;-77
2021/12/26 05:03:42;;;;;;;34.70;20.33;;;5.50;99.90;;;;;;5033148;28;20176;-77
2021/12/26 05:06:08;;;;;;;30.27;19.73;;;5.50;99.90;;;;;;5033602;28;20577;-77
2021/12/26 05:08:34;;;;;;;29.10;18.77;;;5.50;99.90;;;;;;5032623;28;20206;-78
2021/12/26 05:10:59;;;;;;;35.00;20.47;;;5.40;99.90;;;;;;5024226;28;20249;-78
2021/12/26 05:13:25;;;;;;;32.27;20.47;;;5.50;99.90;;;;;;5037133;28;20237;-78
2021/12/26 05:15:51;;;;;;;30.83;19.90;;;5.50;99.90;;;;;;5037153;28;20206;-77
2021/12/26 05:18:17;;;;;;;31.03;19.73;;;5.50;99.90;;;;;;5036913;28;20556;-78
2021/12/26 05:20:44;;;;;;;28.03;19.13;;;5.50;99.90;;;;;;5037127;28;20652;-77
2021/12/26 05:23:10;;;;;;;32.63;18.97;;;5.50;99.90;;;;;;5036562;28;20178;-77
2021/12/26 05:25:35;;;;;;;30.20;19.03;;;5.50;99.90;;;;;;5036546;28;20681;-78
2021/12/26 05:28:02;;;;;;;28.83;18.17;;;5.60;99.90;;;;;;5037359;28;20206;-77
2021/12/26 05:30:28;;;;;;;30.03;18.70;;;5.60;99.90;;;;;;5037223;28;20647;-78
2021/12/26 05:32:54;;;;;;;32.50;19.93;;;5.60;99.90;;;;;;5036562;28;20555;-78
2021/12/26 05:35:19;;;;;;;29.27;19.03;;;5.60;99.90;;;;;;5036822;28;20210;-78
2021/12/26 05:37:46;;;;;;;27.23;19.27;;;5.60;99.90;;;;;;5037088;28;20220;-77
2021/12/26 05:40:12;;;;;;;27.97;19.50;;;5.70;99.90;;;;;;5034882;28;20177;-78
2021/12/26 05:42:39;;;;;;;29.90;20.20;;;5.60;99.90;;;;;;5006545;28;20182;-77
2021/12/26 05:45:06;;;;;;;35.27;21.17;;;5.60;99.90;;;;;;5037074;28;20172;-77
2021/12/26 05:47:32;;;;;;;25.23;18.27;;;5.60;99.90;;;;;;5036939;28;20234;-78
2021/12/26 05:49:59;;;;;;;26.77;18.87;;;5.60;99.90;;;;;;5036833;28;20175;-78
2021/12/26 05:52:25;;;;;;;27.63;18.17;;;5.60;99.90;;;;;;5019541;28;20224;-78
2021/12/26 05:54:51;;;;;;;31.07;20.40;;;5.60;99.90;;;;;;5036407;28;20208;-78
2021/12/26 05:57:17;;;;;;;29.70;19.37;;;5.60;99.90;;;;;;5033050;28;20171;-77
2021/12/26 05:59:44;;;;;;;37.90;21.83;;;5.60;99.90;;;;;;5037829;28;20554;-77
2021/12/26 06:02:16;;;;;;;30.53;19.67;;;5.70;99.90;;;;;;5039427;28;20270;-76
2021/12/26 06:04:42;;;;;;;34.50;19.73;;;5.60;99.90;;;;;;5025790;28;20239;-79
2021/12/26 06:07:08;;;;;;;30.40;18.80;;;5.50;99.90;;;;;;5044374;28;20228;-80
2021/12/26 06:09:34;;;;;;;22.57;16.60;;;5.60;99.90;;;;;;5045163;28;20235;-80
2021/12/26 06:12:00;;;;;;;25.20;17.27;;;5.60;99.90;;;;;;5034674;28;20201;-80
2021/12/26 06:14:25;;;;;;;43.70;23.90;;;5.70;99.90;;;;;;5042980;28;20195;-80
2021/12/26 06:16:51;;;;;;;26.17;18.80;;;5.70;99.90;;;;;;5043210;28;20204;-80
2021/12/26 06:19:17;;;;;;;31.90;19.23;;;5.60;99.90;;;;;;5043572;28;20217;-80
2021/12/26 06:21:43;;;;;;;26.90;18.17;;;5.60;99.90;;;;;;5044769;28;20723;-81
2021/12/26 06:24:09;;;;;;;24.70;17.63;;;5.50;99.90;;;;;;5027223;28;20180;-82
2021/12/26 06:26:34;;;;;;;28.23;18.37;;;5.50;99.90;;;;;;5044559;28;20566;-81
2021/12/26 06:29:00;;;;;;;32.47;19.30;;;5.50;99.90;;;;;;5026723;28;20193;-81
2021/12/26 06:31:26;;;;;;;26.07;18.27;;;5.50;99.90;;;;;;5043322;28;20173;-81
2021/12/26 06:33:52;;;;;;;28.20;17.60;;;5.50;99.90;;;;;;5043606;28;20206;-81
2021/12/26 06:36:18;;;;;;;24.90;18.00;;;5.50;99.90;;;;;;5023859;28;20211;-81
2021/12/26 06:38:47;;;;;;;24.83;17.70;;;5.50;99.90;;;;;;5042784;28;20186;-82
2021/12/26 06:41:14;;;;;;;25.23;17.33;;;5.50;99.90;;;;;;5042866;28;20195;-80
2021/12/26 06:43:44;;;;;;;26.43;18.10;;;5.50;99.90;;;;;;5043330;28;20273;-82
2021/12/26 06:46:10;;;;;;;38.23;21.10;;;5.40;99.90;;;;;;5043229;28;20201;-82
2021/12/26 06:48:38;;;;;;;26.43;18.10;;;5.60;99.90;;;;;;5042931;28;20186;-81
2021/12/26 06:51:04;;;;;;;36.53;21.30;;;5.50;99.90;;;;;;5043735;28;20636;-81
2021/12/26 06:53:30;;;;;;;25.93;17.03;;;5.50;99.90;;;;;;5043590;28;20197;-82
2021/12/26 06:55:55;;;;;;;26.67;18.10;;;5.50;99.90;;;;;;5042805;28;20221;-81
2021/12/26 06:58:21;;;;;;;27.77;18.30;;;5.60;99.90;;;;;;5042878;28;20167;-80
2021/12/26 07:00:47;;;;;;;26.63;17.87;;;5.40;99.90;;;;;;5042373;28;20236;-81
2021/12/26 07:03:13;;;;;;;25.53;17.87;;;5.40;99.90;;;;;;5042759;28;20173;-83
2021/12/26 07:05:39;;;;;;;23.93;17.10;;;5.50;99.90;;;;;;5042657;28;20301;-80
2021/12/26 07:08:05;;;;;;;23.27;16.90;;;5.40;99.90;;;;;;5042816;28;20577;-81
2021/12/26 07:10:31;;;;;;;20.23;16.03;;;5.50;99.90;;;;;;5042327;28;20180;-82
2021/12/26 07:12:57;;;;;;;24.13;17.37;;;5.50;99.90;;;;;;5042460;28;20187;-82
2021/12/26 07:15:25;;;;;;;23.50;16.27;;;5.60;99.90;;;;;;5024561;28;20208;-82
2021/12/26 07:17:51;;;;;;;23.60;17.17;;;5.50;99.90;;;;;;5042590;28;20654;-80
2021/12/26 07:20:17;;;;;;;23.17;16.30;;;5.50;99.90;;;;;;5042102;28;20189;-81
2021/12/26 07:22:46;;;;;;;22.00;16.40;;;5.50;99.90;;;;;;5042770;28;20207;-82
2021/12/26 07:25:14;;;;;;;26.10;17.70;;;5.50;99.90;;;;;;5042624;28;20695;-81
2021/12/26 07:27:40;;;;;;;25.17;18.70;;;5.80;99.90;;;;;;5041727;28;20234;-82
2021/12/26 07:30:07;;;;;;;27.70;18.77;;;5.50;99.90;;;;;;5042287;28;20258;-82
2021/12/26 07:32:33;;;;;;;26.87;19.17;;;5.60;99.90;;;;;;5040182;28;20204;-83
2021/12/26 07:34:59;;;;;;;25.90;18.53;;;5.90;99.90;;;;;;5036092;28;20556;-83
2021/12/26 07:37:26;;;;;;;26.40;17.63;;;5.60;99.90;;;;;;5040698;28;20240;-83
2021/12/26 07:39:52;;;;;;;22.10;17.30;;;5.90;99.90;;;;;;5039796;28;20187;-80
2021/12/26 07:42:18;;;;;;;25.37;17.37;;;5.70;99.90;;;;;;5040075;28;20596;-83
2021/12/26 07:44:43;;;;;;;24.57;16.33;;;5.60;99.90;;;;;;5024612;28;20247;-82
2021/12/26 07:47:09;;;;;;;24.37;17.97;;;5.60;99.90;;;;;;5041956;28;20203;-81
2021/12/26 07:49:35;;;;;;;30.77;20.77;;;5.60;99.90;;;;;;5041512;28;20659;-82
2021/12/26 07:52:09;;;;;;;27.47;18.50;;;5.70;99.90;;;;;;5041315;28;20279;-83
2021/12/26 07:54:35;;;;;;;26.13;19.30;;;5.70;99.90;;;;;;5041192;28;20601;-83
2021/12/26 07:57:01;;;;;;;21.47;15.73;;;5.60;99.90;;;;;;5040782;28;20201;-81
2021/12/26 07:59:27;;;;;;;22.33;16.60;;;5.80;99.90;;;;;;5040239;28;20179;-83
2021/12/26 08:01:53;;;;;;;23.70;17.27;;;5.70;99.90;;;;;;5022642;28;20178;-82
2021/12/26 08:04:18;;;;;;;28.30;18.27;;;5.70;99.90;;;;;;5042427;28;20191;-83
2021/12/26 08:06:44;;;;;;;23.43;18.03;;;5.60;99.90;;;;;;5036946;28;20196;-83
2021/12/26 08:09:10;;;;;;;25.67;18.10;;;5.60;99.90;;;;;;5039397;28;20202;-83
2021/12/26 08:11:39;;;;;;;25.20;18.07;;;5.70;99.90;;;;;;5039921;28;20199;-82
2021/12/26 08:14:04;;;;;;;27.10;18.30;;;5.60;99.90;;;;;;5040135;28;20176;-84
2021/12/26 08:16:30;;;;;;;26.27;17.40;;;5.60;99.90;;;;;;5038774;28;20198;-82
2021/12/26 08:18:56;;;;;;;25.27;18.27;;;5.70;99.90;;;;;;5031463;28;20253;-82
2021/12/26 08:21:21;;;;;;;27.37;18.67;;;5.70;99.90;;;;;;5038690;28;20173;-78
2021/12/26 08:23:47;;;;;;;27.37;19.47;;;5.70;99.90;;;;;;5032435;28;20190;-77
2021/12/26 08:26:13;;;;;;;22.03;17.03;;;5.70;99.90;;;;;;5033025;28;20249;-78
2021/12/26 08:28:40;;;;;;;25.97;18.97;;;5.80;99.90;;;;;;5033517;28;20673;-78
2021/12/26 08:31:06;;;;;;;27.97;18.70;;;5.80;99.90;;;;;;5031612;28;20522;-77
2021/12/26 08:33:32;;;;;;;23.17;17.33;;;5.70;99.90;;;;;;5031118;28;20811;-77
2021/12/26 08:35:57;;;;;;;24.73;18.63;;;5.80;99.90;;;;;;5031813;28;20188;-77
2021/12/26 08:38:23;;;;;;;26.03;18.30;;;5.80;99.90;;;;;;5032344;28;20597;-77
2021/12/26 08:40:51;;;;;;;19.80;16.30;;;5.80;99.90;;;;;;5031319;28;20172;-78
2021/12/26 08:43:18;;;;;;;20.83;16.43;;;5.90;99.90;;;;;;5032965;28;20184;-78
2021/12/26 08:45:44;;;;;;;28.40;19.20;;;5.90;99.90;;;;;;5032857;28;20198;-78
2021/12/26 08:48:10;;;;;;;22.77;18.07;;;5.90;99.90;;;;;;5035891;28;20237;-78
2021/12/26 08:50:36;;;;;;;24.17;17.87;;;5.90;99.90;;;;;;5036975;28;20176;-78
2021/12/26 08:53:01;;;;;;;25.57;19.07;;;5.90;99.90;;;;;;5036571;28;20239;-77
2021/12/26 08:55:27;;;;;;;24.33;17.90;;;5.90;99.90;;;;;;5036404;28;20191;-77
2021/12/26 08:57:54;;;;;;;25.33;18.07;;;6.00;99.90;;;;;;5036200;28;20203;-79
2021/12/26 09:00:21;;;;;;;28.50;19.20;;;5.90;99.90;;;;;;5035100;28;20167;-78
2021/12/26 09:02:48;;;;;;;33.57;22.67;;;6.00;99.90;;;;;;5034768;28;20178;-78
2021/12/26 09:05:14;;;;;;;29.93;20.80;;;6.00;99.90;;;;;;5036113;28;20209;-78
2021/12/26 09:07:41;;;;;;;23.03;17.13;;;5.90;99.90;;;;;;5035887;28;20179;-78
2021/12/26 09:10:08;;;;;;;23.33;17.20;;;6.00;99.90;;;;;;5035869;28;20613;-78
2021/12/26 09:12:34;;;;;;;23.57;17.43;;;6.00;99.90;;;;;;5034783;28;20684;-77
2021/12/26 09:15:00;;;;;;;22.80;17.23;;;6.00;99.90;;;;;;5036491;28;20177;-78
2021/12/26 09:17:26;;;;;;;25.27;18.50;;;6.00;99.90;;;;;;5034679;28;20179;-77
2021/12/26 09:19:52;;;;;;;22.87;17.67;;;6.10;99.90;;;;;;5018867;28;20520;-79
2021/12/26 09:22:17;;;;;;;25.13;18.20;;;6.10;99.90;;;;;;5036139;28;20610;-78
2021/12/26 09:24:45;;;;;;;22.80;16.60;;;6.10;99.90;;;;;;5033756;28;20196;-77
2021/12/26 09:27:13;;;;;;;20.93;15.63;;;6.10;99.90;;;;;;5033314;28;20246;-78
2021/12/26 09:29:39;;;;;;;20.43;15.63;;;6.20;99.90;;;;;;5035546;28;20249;-77
2021/12/26 09:32:05;;;;;;;18.23;15.77;;;6.30;99.90;;;;;;5034677;28;20607;-78
2021/12/26 09:34:33;;;;;;;25.33;19.70;;;6.20;99.90;;;;;;5035909;28;20315;-78
2021/12/26 09:37:00;;;;;;;23.37;18.10;;;6.30;99.90;;;;;;5016842;28;20204;-78
2021/12/26 09:39:26;;;;;;;24.50;18.57;;;6.30;99.90;;;;;;5034652;28;20170;-79
2021/12/26 09:41:52;;;;;;;23.73;18.47;;;6.30;99.90;;;;;;5017828;28;20662;-78
2021/12/26 09:44:19;;;;;;;22.17;18.27;;;6.50;99.90;;;;;;5035450;28;20216;-78
2021/12/26 09:46:46;;;;;;;23.60;18.57;;;6.40;99.90;;;;;;5034182;28;20197;-78
2021/12/26 09:49:12;;;;;;;22.67;18.27;;;6.40;99.90;;;;;;5033711;28;20169;-79
2021/12/26 09:51:37;;;;;;;22.63;19.00;;;6.50;99.90;;;;;;5017202;28;20180;-78
2021/12/26 09:54:05;;;;;;;25.93;19.43;;;6.50;99.90;;;;;;5017685;28;20201;-78
2021/12/26 09:56:31;;;;;;;23.67;18.57;;;6.50;99.90;;;;;;5017088;28;20242;-77
2021/12/26 09:59:02;;;;;;;22.67;18.03;;;6.60;99.90;;;;;;5037196;28;20659;-79
2021/12/26 10:01:30;;;;;;;22.80;18.90;;;6.50;99.90;;;;;;5034789;28;20172;-78
2021/12/26 10:03:58;;;;;;;23.17;18.37;;;6.50;99.90;;;;;;5032062;28;20173;-79
2021/12/26 10:06:25;;;;;;;21.97;18.13;;;6.60;99.90;;;;;;5016236;28;20613;-79
2021/12/26 10:09:10;;;;;;;20.90;17.33;;;6.60;99.90;;;;;;5033564;28;20180;-78
2021/12/26 10:11:39;;;;;;;21.03;17.07;;;6.60;99.90;;;;;;5035157;28;20242;-78
2021/12/26 10:14:09;;;;;;;23.60;18.33;;;6.60;99.90;;;;;;5034578;28;20216;-78
2021/12/26 10:16:45;;;;;;;20.03;17.60;;;6.70;99.90;;;;;;5016130;28;20211;-79
2021/12/26 10:19:11;;;;;;;22.47;17.03;;;6.60;99.90;;;;;;5027701;28;20244;-79
2021/12/26 10:21:47;;;;;;;18.47;16.30;;;6.60;99.90;;;;;;5032800;28;20193;-79
2021/12/26 10:24:29;;;;;;;22.90;18.20;;;6.70;99.90;;;;;;5030513;28;20656;-79
2021/12/26 10:27:00;;;;;;;24.63;18.27;;;6.70;99.90;;;;;;5031495;28;20220;-77
2021/12/26 10:29:28;;;;;;;24.20;18.87;;;6.70;99.90;;;;;;5033885;28;20663;-78
2021/12/26 10:31:54;;;;;;;24.80;18.80;;;6.70;99.90;;;;;;5033462;28;20251;-77
2021/12/26 10:34:25;;;;;;;23.17;17.93;;;6.70;99.90;;;;;;5033595;28;20270;-78
2021/12/26 10:36:52;;;;;;;18.33;16.43;;;6.70;99.90;;;;;;5034199;28;20692;-78
2021/12/26 10:39:27;;;;;;;19.80;15.93;;;6.80;99.90;;;;;;5034475;28;20167;-79
2021/12/26 10:42:07;;;;;;;17.67;15.20;;;6.80;99.90;;;;;;5034401;28;20223;-78
2021/12/26 10:44:36;;;;;;;18.67;15.97;;;6.80;99.90;;;;;;5034227;28;20199;-77
2021/12/26 10:47:33;;;;;;;18.13;16.13;;;6.80;99.90;;;;;;5033870;28;20197;-78
2021/12/26 10:50:00;;;;;;;18.30;15.73;;;6.90;99.90;;;;;;5032357;28;20197;-77
2021/12/26 10:52:27;;;;;;;19.73;16.20;;;7.00;99.90;;;;;;5031665;28;20223;-75
2021/12/26 10:54:56;;;;;;;15.90;14.30;;;7.00;99.90;;;;;;5027630;28;20177;-77
2021/12/26 10:57:26;;;;;;;17.03;15.23;;;7.10;99.90;;;;;;5033179;28;20170;-77
2021/12/26 11:00:09;;;;;;;18.60;15.53;;;7.00;99.90;;;;;;5033195;28;20170;-77
2021/12/26 11:02:37;;;;;;;20.23;17.50;;;7.00;99.90;;;;;;5032830;28;20185;-77
2021/12/26 11:05:07;;;;;;;37.33;22.93;;;7.10;99.90;;;;;;5032991;28;20185;-77
2021/12/26 11:07:45;;;;;;;27.60;19.40;;;7.10;99.90;;;;;;5030891;28;20690;-76
2021/12/26 11:10:17;;;;;;;23.60;17.47;;;7.10;99.90;;;;;;5030197;28;20205;-77
2021/12/26 11:12:51;;;;;;;16.00;14.27;;;7.10;99.90;;;;;;5030210;28;20214;-77
2021/12/26 11:15:19;;;;;;;17.90;15.20;;;7.20;99.90;;;;;;5030065;28;20280;-78
2021/12/26 11:17:55;;;;;;;16.10;14.50;;;7.10;99.90;;;;;;5031434;28;20200;-77
2021/12/26 11:20:33;;;;;;;16.57;14.77;;;7.10;99.90;;;;;;5018124;28;20652;-77
2021/12/26 11:23:01;;;;;;;18.30;14.20;;;7.20;99.90;;;;;;5032527;28;20189;-76
2021/12/26 11:25:27;;;;;;;14.70;13.30;;;7.20;99.90;;;;;;5014054;28;20292;-76
2021/12/26 11:27:53;;;;;;;14.00;12.70;;;7.30;99.90;;;;;;5031141;28;20178;-77
2021/12/26 11:30:20;;;;;;;13.47;12.17;;;7.30;99.90;;;;;;5031058;28;20181;-76
2021/12/26 11:32:46;;;;;;;14.93;13.43;;;7.30;99.90;;;;;;5030592;28;20202;-76
2021/12/26 11:35:13;;;;;;;14.27;12.83;;;7.30;99.90;;;;;;5030598;28;20767;-76
2021/12/26 11:37:39;;;;;;;15.07;13.43;;;7.30;99.90;;;;;;5029741;28;20176;-78
2021/12/26 11:40:09;;;;;;;13.00;11.80;;;7.30;99.90;;;;;;5029998;28;20672;-76
2021/12/26 11:42:37;;;;;;;13.17;11.87;;;7.30;99.90;;;;;;5033150;28;20178;-76
2021/12/26 11:45:12;;;;;;;13.37;11.97;;;7.30;99.90;;;;;;5029868;28;20183;-76
2021/12/26 11:48:20;;;;;;;14.80;13.30;;;7.30;99.90;;;;;;5033286;28;20170;-77
2021/12/26 11:51:15;;;;;;;13.23;11.93;;;7.40;99.90;;;;;;5032854;28;20541;-77
2021/12/26 11:54:10;;;;;;;13.57;11.90;;;7.50;99.90;;;;;;5037442;28;20201;-77
2021/12/26 11:56:49;;;;;;;12.40;11.20;;;7.50;99.90;;;;;;5029013;28;20212;-77
2021/12/26 11:59:38;;;;;;;13.60;12.23;;;7.60;99.90;;;;;;5029542;28;20536;-76
2021/12/26 12:02:04;;;;;;;12.83;11.20;;;7.60;99.90;;;;;;5010157;28;20584;-77
2021/12/26 12:04:30;;;;;;;13.43;12.03;;;7.60;99.90;;;;;;5013090;28;20177;-76
2021/12/26 12:07:04;;;;;;;12.57;11.20;;;7.60;99.90;;;;;;5029102;28;20284;-76
2021/12/26 12:09:39;;;;;;;11.87;10.77;;;7.70;99.90;;;;;;5010034;28;20178;-78
2021/12/26 12:12:15;;;;;;;11.53;10.53;;;7.70;99.90;;;;;;5027886;28;20197;-77
2021/12/26 12:14:55;;;;;;;13.37;12.03;;;7.60;99.90;;;;;;5029673;28;20170;-77
2021/12/26 12:17:32;;;;;;;12.80;11.57;;;7.60;99.90;;;;;;5029472;28;20174;-76
2021/12/26 12:20:15;;;;;;;12.67;11.57;;;7.50;99.90;;;;;;5031890;28;20729;-78
2021/12/26 12:22:59;;;;;;;10.53;9.63;;;7.60;99.90;;;;;;5033239;28;20172;-77
2021/12/26 12:25:38;;;;;;;11.63;10.63;;;7.60;99.90;;;;;;5026368;28;20208;-77
2021/12/26 12:28:20;;;;;;;11.73;10.73;;;7.60;99.90;;;;;;5026174;28;20230;-77
2021/12/26 12:30:47;;;;;;;10.53;9.63;;;7.60;99.90;;;;;;5027242;28;20544;-77
2021/12/26 12:33:13;;;;;;;12.50;11.30;;;7.60;99.90;;;;;;5015547;28;20243;-76
2021/12/26 12:35:53;;;;;;;11.93;10.83;;;7.60;99.90;;;;;;5026216;28;20648;-77
2021/12/26 12:38:44;;;;;;;12.17;11.07;;;7.60;99.90;;;;;;5030735;28;20205;-77
2021/12/26 12:41:35;;;;;;;11.83;10.83;;;7.60;99.90;;;;;;5032349;28;20179;-76
2021/12/26 12:44:04;;;;;;;11.03;10.13;;;7.70;99.90;;;;;;5006770;28;20185;-76
2021/12/26 12:46:30;;;;;;;11.60;10.60;;;7.70;99.90;;;;;;5029326;28;20213;-76